Time;durP1;ratioP1;P1;durP2;ratioP2;P2;SDS_P1;SDS_P2;PMS_P1;PMS_P2;Temp;Humidity;BMP_temperature;BMP_pressure;BME280_temperature;BME280_humidity;BME280_pressure;Samples;Min_cycle;Max_cycle;Signal;HPM_P1;HPM_P2
2021/09/30 00:00:20;;;;;;;5.60;2.90;;;;;;;7.09;96.38;102219.63;2066403;28;20511;-64
2021/09/30 00:01:20;;;;;;;6.88;2.28;;;;;;;7.09;96.55;102217.03;2066441;28;20429;-65
2021/09/30 00:02:20;;;;;;;4.93;2.40;;;;;;;7.08;96.06;102223.09;2066547;28;20039;-64
2021/09/30 00:03:21;;;;;;;10.70;3.03;;;;;;;7.06;96.31;102227.44;2066423;28;20026;-65
2021/09/30 00:04:21;;;;;;;11.27;2.73;;;;;;;7.07;96.66;102223.97;2065930;28;20042;-64
2021/09/30 00:05:21;;;;;;;4.80;2.37;;;;;;;7.08;96.46;102225.69;2065891;28;20113;-65
2021/09/30 00:06:22;;;;;;;3.63;2.73;;;;;;;7.05;95.90;102229.16;2066364;28;20027;-65
2021/09/30 00:07:22;;;;;;;4.87;3.10;;;;;;;7.03;95.88;102222.25;2066216;28;20053;-65
2021/09/30 00:08:23;;;;;;;5.80;2.40;;;;;;;7.00;95.82;102227.47;2065846;28;20117;-64
2021/09/30 00:09:23;;;;;;;9.48;2.80;;;;;;;7.01;96.12;102229.22;2065675;28;20026;-65
2021/09/30 00:10:25;;;;;;;5.60;2.97;;;;;;;7.02;96.46;102226.56;2066236;28;20026;-66
2021/09/30 00:11:28;;;;;;;11.18;3.10;;;;;;;7.03;96.25;102228.31;2065865;28;20406;-65
2021/09/30 00:12:32;;;;;;;4.10;2.88;;;;;;;7.03;95.90;102227.44;2065376;28;20018;-65
2021/09/30 00:17:28;;;;;;;7.40;2.50;;;;;;;7.03;96.15;102238.72;2049355;29;20054;-65
2021/09/30 00:32:29;;;;;;;5.47;2.85;;;;;;;7.06;95.77;102235.22;2049317;29;20504;-64
2021/09/30 00:35:55;;;;;;;5.10;2.00;;;;;;;7.12;94.99;102242.97;2066107;28;20065;-65
2021/09/30 00:40:10;;;;;;;6.55;2.28;;;;;;;7.17;94.96;102242.94;2066183;28;20031;-66
2021/09/30 00:42:24;;;;;;;6.65;2.40;;;;;;;7.21;94.73;102245.53;2068459;28;19932;-65
2021/09/30 00:46:06;;;;;;;5.10;2.67;;;;;;;7.21;94.27;102244.66;2065828;28;20034;-64
2021/09/30 00:47:36;;;;;;;6.30;2.40;;;;;;;7.20;94.60;102245.53;2065968;28;20391;-65
2021/09/30 00:48:55;;;;;;;4.10;2.53;;;;;;;7.17;94.35;102251.63;2066171;28;20531;-65
2021/09/30 00:51:22;;;;;;;3.28;1.60;;;;;;;7.25;94.24;102250.72;2065835;28;20049;-65
2021/09/30 00:55:09;;;;;;;5.70;2.50;;;;;;;7.20;94.44;102241.22;2066002;28;20105;-65
2021/09/30 01:32:55;;;;;;;4.43;1.67;;;;;;;7.13;93.34;102262.88;2065659;28;20433;-65
2021/09/30 01:45:48;;;;;;;4.40;2.72;;;;;;;7.09;93.72;102262.03;2065253;28;20031;-65
2021/09/30 01:46:21;;;;;;;6.57;2.30;;;;;;;7.08;93.92;102259.44;2065151;28;20058;-65
2021/09/30 01:52:05;;;;;;;4.80;1.75;;;;;;;7.07;93.72;102260.31;2064966;28;20030;-65
2021/09/30 01:52:07;;;;;;;7.60;2.42;;;;;;;7.01;93.90;102260.34;2065282;28;20042;-65
2021/09/30 02:21:15;;;;;;;11.30;2.63;;;;;;;7.01;92.92;102275.94;2065329;28;20407;-64
2021/09/30 02:23:55;;;;;;;4.80;2.28;;;;;;;7.00;92.79;102279.38;2066701;28;20045;-64
2021/09/30 02:59:12;;;;;;;9.40;2.55;;;;;;;6.67;93.67;102269.97;2066759;28;20058;-65
2021/09/30 03:00:14;;;;;;;5.03;2.35;;;;;;;6.66;93.19;102270.84;2066756;28;20074;-64
2021/09/30 03:01:21;;;;;;;10.48;2.85;;;;;;;6.68;93.18;102276.03;2066826;28;20106;-64
2021/09/30 03:02:22;;;;;;;4.43;2.42;;;;;;;6.69;93.31;102272.56;2066800;28;20026;-64
2021/09/30 03:03:24;;;;;;;5.53;2.43;;;;;;;6.67;93.41;102269.13;2066683;28;20543;-65
2021/09/30 03:04:25;;;;;;;6.88;2.00;;;;;;;6.65;92.94;102279.50;2066818;28;20058;-64
2021/09/30 03:05:26;;;;;;;6.45;3.28;;;;;;;6.67;93.13;102279.50;2066819;28;20099;-63
2021/09/30 03:06:28;;;;;;;5.45;2.25;;;;;;;6.68;92.96;102278.63;2066660;28;20125;-64
2021/09/30 03:07:30;;;;;;;6.22;2.33;;;;;;;6.67;92.92;102276.91;2066733;28;20100;-64
2021/09/30 03:08:35;;;;;;;12.95;2.65;;;;;;;6.65;93.25;102279.50;2066735;28;20085;-64
2021/09/30 03:09:40;;;;;;;7.93;2.97;;;;;;;6.66;92.78;102277.75;2066726;28;20027;-65
2021/09/30 03:10:41;;;;;;;5.03;2.30;;;;;;;6.67;93.28;102272.56;2066738;28;20023;-64
2021/09/30 03:11:48;;;;;;;9.95;2.88;;;;;;;6.67;92.75;102280.34;2066470;28;20026;-64
2021/09/30 03:12:51;;;;;;;6.72;1.83;;;;;;;6.66;93.18;102276.03;2066559;28;20070;-64
2021/09/30 03:13:53;;;;;;;11.32;2.85;;;;;;;6.65;92.59;102274.31;2066310;28;20045;-63
2021/09/30 03:15:15;;;;;;;6.05;2.55;;;;;;;6.66;92.80;102285.53;2066338;28;20439;-66
2021/09/30 03:16:52;;;;;;;7.70;1.95;;;;;;;6.63;93.19;102281.22;2066574;28;20158;-64
2021/09/30 03:17:49;;;;;;;7.50;2.35;;;;;;;6.63;93.07;102285.53;2064034;28;19914;-64
2021/09/30 03:19:00;;;;;;;5.90;2.65;;;;;;;6.59;93.04;102292.47;2066112;28;20056;-65
2021/09/30 03:20:16;;;;;;;9.48;2.40;;;;;;;6.60;92.78;102290.78;2066635;28;20142;-64
2021/09/30 03:22:17;;;;;;;10.10;2.60;;;;;;;6.60;92.81;102278.63;2066481;28;20122;-64
2021/09/30 03:23:21;;;;;;;8.15;2.38;;;;;;;6.60;93.03;102283.81;2066692;28;20031;-65
2021/09/30 03:24:22;;;;;;;6.70;2.30;;;;;;;6.59;92.42;102282.09;2065689;28;20042;-64
2021/09/30 03:25:23;;;;;;;3.38;2.03;;;;;;;6.57;92.68;102284.69;2065799;28;20088;-64
2021/09/30 03:26:25;;;;;;;8.20;2.20;;;;;;;6.59;92.67;102294.22;2066110;28;20394;-66
2021/09/30 03:27:26;;;;;;;5.67;2.60;;;;;;;6.59;92.70;102292.47;2065018;28;20038;-65
2021/09/30 03:28:27;;;;;;;14.15;4.60;;;;;;;6.60;93.36;102290.78;2065067;28;20318;-64
2021/09/30 03:29:28;;;;;;;6.28;3.28;;;;;;;6.62;92.69;102287.28;2065552;28;20027;-63
2021/09/30 03:30:29;;;;;;;;;;;;;;;6.63;93.06;102291.59;2066396;28;20050;-64
2021/09/30 03:31:31;;;;;;;8.85;2.80;;;;;;;6.61;92.72;102295.97;2065443;28;19968;-64
2021/09/30 03:32:32;;;;;;;5.05;1.88;;;;;;;6.57;92.93;102296.84;2065848;28;20031;-65
2021/09/30 03:33:33;;;;;;;5.88;2.15;;;;;;;6.57;92.22;102292.47;2064720;28;20029;-65
2021/09/30 03:34:33;;;;;;;7.93;2.50;;;;;;;6.56;92.92;102303.75;2066399;28;20015;-64
2021/09/30 03:35:36;;;;;;;6.68;2.00;;;;;;;6.57;92.44;102297.66;2066362;28;20391;-64
2021/09/30 03:36:36;;;;;;;7.95;2.15;;;;;;;6.55;92.41;102294.25;2066384;28;20030;-65
2021/09/30 03:37:36;;;;;;;6.40;2.13;;;;;;;6.56;92.87;102290.78;2066543;28;20479;-64
2021/09/30 03:38:37;;;;;;;10.97;2.10;;;;;;;6.56;92.76;102300.28;2066494;28;20376;-63
2021/09/30 03:39:37;;;;;;;3.93;2.17;;;;;;;6.57;92.72;102302.03;2066390;28;20029;-64
2021/09/30 03:40:38;;;;;;;5.83;2.07;;;;;;;6.57;92.46;102296.84;2057658;28;20117;-64
2021/09/30 03:41:42;;;;;;;8.80;1.95;;;;;;;6.59;92.48;102300.28;2057608;28;20472;-64
2021/09/30 03:42:42;;;;;;;4.25;2.28;;;;;;;6.58;92.30;102301.16;2066356;28;20049;-64
2021/09/30 03:43:42;;;;;;;6.63;2.33;;;;;;;6.56;92.14;102301.16;2066459;28;20081;-64
2021/09/30 03:44:43;;;;;;;4.27;2.43;;;;;;;6.54;92.48;102302.03;2066202;28;20169;-64
2021/09/30 03:45:43;;;;;;;8.07;3.50;;;;;;;6.50;93.15;102300.28;2065527;28;20053;-65
2021/09/30 03:46:46;;;;;;;5.90;2.57;;;;;;;6.48;93.13;102294.22;2057049;28;20074;-65
2021/09/30 03:47:47;;;;;;;7.97;2.63;;;;;;;6.48;92.59;102307.19;2065414;28;20059;-64
2021/09/30 03:48:54;;;;;;;6.03;1.88;;;;;;;6.49;92.87;102304.63;2065603;28;20030;-64
2021/09/30 03:49:54;;;;;;;6.85;2.10;;;;;;;6.52;92.71;102309.81;2065626;28;20018;-63
2021/09/30 03:51:18;;;;;;;7.10;1.95;;;;;;;6.54;92.80;102313.25;2066429;28;20240;-64
2021/09/30 03:53:27;;;;;;;5.35;1.92;;;;;;;6.54;92.42;102305.44;2066511;28;20716;-64
2021/09/30 03:54:35;;;;;;;6.75;2.35;;;;;;;6.56;92.68;102310.66;2066196;28;20446;-65
2021/09/30 03:59:19;;;;;;;4.80;2.20;;;;;;;6.61;91.96;102316.72;2065957;28;20129;-64
2021/09/30 04:00:19;;;;;;;4.15;1.80;;;;;;;6.60;92.25;102322.75;2066300;28;20050;-63
2021/09/30 04:01:20;;;;;;;3.60;1.73;;;;;;;6.62;92.54;102325.34;2066311;28;20021;-65
2021/09/30 04:02:20;;;;;;;6.43;2.33;;;;;;;6.59;91.96;102326.22;2066382;28;20499;-65
2021/09/30 04:03:20;;;;;;;5.23;1.80;;;;;;;6.58;92.04;102319.31;2066281;28;20030;-66
2021/09/30 04:04:22;;;;;;;5.97;2.23;;;;;;;6.58;92.22;102324.50;2066355;28;20026;-66
2021/09/30 04:05:23;;;;;;;5.22;2.00;;;;;;;6.58;92.09;102329.69;2066257;28;20032;-64
2021/09/30 04:06:23;;;;;;;4.17;1.90;;;;;;;6.58;92.37;102324.50;2066123;28;20076;-65
2021/09/30 04:07:23;;;;;;;7.00;2.43;;;;;;;6.58;92.02;102329.69;2065970;28;20030;-64
2021/09/30 04:08:23;;;;;;;5.80;2.47;;;;;;;6.56;92.16;102329.69;2065602;28;20112;-63
2021/09/30 04:09:28;;;;;;;4.47;1.83;;;;;;;6.56;91.95;102331.41;2065719;28;20014;-63
2021/09/30 04:10:28;;;;;;;3.78;2.17;;;;;;;6.55;92.18;102340.06;2065705;28;20030;-65
2021/09/30 04:11:28;;;;;;;7.03;2.33;;;;;;;6.56;92.13;102336.59;2065501;28;20057;-65
2021/09/30 04:12:29;;;;;;;2.80;1.67;;;;;;;6.55;91.80;102334.88;2066309;28;20088;-64
2021/09/30 04:13:29;;;;;;;10.77;2.23;;;;;;;6.54;91.97;102338.34;2066276;28;20054;-65
2021/09/30 04:14:30;;;;;;;6.17;1.80;;;;;;;6.52;92.50;102334.84;2066317;28;20025;-65
2021/09/30 04:15:30;;;;;;;6.20;2.17;;;;;;;6.51;92.56;102330.56;2066212;28;20289;-65
2021/09/30 04:16:30;;;;;;;5.20;1.90;;;;;;;6.49;92.44;102340.03;2065669;28;20447;-64
2021/09/30 04:17:30;;;;;;;2.03;1.63;;;;;;;6.47;92.60;102340.06;2065681;28;20042;-66
2021/09/30 04:18:31;;;;;;;5.30;1.83;;;;;;;6.49;92.85;102340.03;2066317;28;20018;-65
2021/09/30 04:19:32;;;;;;;6.18;2.10;;;;;;;6.51;92.55;102343.50;2066242;28;20549;-64
2021/09/30 04:20:33;;;;;;;6.75;2.05;;;;;;;6.52;92.45;102343.53;2066251;28;20085;-63
2021/09/30 04:21:33;;;;;;;4.50;1.83;;;;;;;6.54;92.30;102340.94;2066273;28;20018;-65
2021/09/30 04:22:33;;;;;;;6.47;2.27;;;;;;;6.54;92.37;102349.56;2065503;28;20029;-64
2021/09/30 04:23:33;;;;;;;5.07;1.47;;;;;;;6.53;92.28;102346.97;2065650;28;20102;-65
2021/09/30 04:24:34;;;;;;;6.37;2.27;;;;;;;6.51;91.76;102346.13;2066296;28;20121;-63
2021/09/30 04:25:34;;;;;;;6.30;2.20;;;;;;;6.50;92.51;102347.00;2066158;28;20479;-64
2021/09/30 04:26:35;;;;;;;7.63;2.10;;;;;;;6.48;92.07;102349.56;2066207;28;20049;-65
2021/09/30 04:27:35;;;;;;;6.57;1.97;;;;;;;6.47;92.67;102347.84;2066221;28;20030;-65
2021/09/30 04:28:35;;;;;;;4.63;2.20;;;;;;;6.48;92.21;102346.09;2066231;28;20109;-64
2021/09/30 04:29:36;;;;;;;5.37;1.67;;;;;;;6.43;92.46;102352.16;2066188;28;20093;-65
2021/09/30 04:30:36;;;;;;;8.27;2.20;;;;;;;6.40;92.31;102352.16;2066195;28;20049;-65
2021/09/30 04:31:36;;;;;;;11.47;2.40;;;;;;;6.41;92.27;102353.03;2066146;28;20145;-65
2021/09/30 04:32:37;;;;;;;10.03;2.10;;;;;;;6.41;92.64;102356.50;2065884;28;20023;-65
2021/09/30 04:33:37;;;;;;;3.97;2.17;;;;;;;6.43;92.17;102361.66;2065415;28;20065;-65
2021/09/30 04:34:37;;;;;;;2.97;2.03;;;;;;;6.42;92.13;102360.81;2065595;28;20105;-65
2021/09/30 04:35:38;;;;;;;3.50;1.37;;;;;;;6.40;92.84;102362.53;2065440;28;20018;-65
2021/09/30 04:36:38;;;;;;;3.63;1.83;;;;;;;6.39;92.17;102360.81;2065435;28;20514;-64
2021/09/30 04:37:39;;;;;;;7.18;1.95;;;;;;;6.40;92.46;102356.50;2066006;28;20057;-65
2021/09/30 04:38:39;;;;;;;5.73;2.57;;;;;;;6.42;92.71;102355.63;2065503;28;20018;-64
2021/09/30 04:39:39;;;;;;;7.17;1.90;;;;;;;6.41;92.70;102353.91;2065518;28;20026;-65
2021/09/30 04:40:39;;;;;;;3.13;1.50;;;;;;;6.40;92.34;102361.69;2066122;28;20041;-65
2021/09/30 04:41:43;;;;;;;3.33;1.77;;;;;;;6.40;92.13;102349.56;2066113;28;20025;-65
2021/09/30 04:42:43;;;;;;;6.53;2.13;;;;;;;6.39;92.93;102350.44;2065457;28;20028;-65
2021/09/30 04:43:45;;;;;;;8.67;2.47;;;;;;;6.39;92.82;102366.00;2065420;28;20026;-65
2021/09/30 04:44:46;;;;;;;5.22;1.65;;;;;;;6.38;93.02;102358.22;2065200;28;20565;-66
2021/09/30 04:45:48;;;;;;;12.40;2.27;;;;;;;6.38;93.07;102353.91;2066118;28;20085;-65
2021/09/30 04:46:49;;;;;;;7.88;2.17;;;;;;;6.36;92.59;102358.22;2065869;28;20027;-64
2021/09/30 04:47:49;;;;;;;6.25;1.80;;;;;;;6.35;93.10;102359.09;2065841;28;20066;-65
2021/09/30 04:48:50;;;;;;;5.20;1.80;;;;;;;6.33;92.77;102354.78;2065963;28;20104;-64
2021/09/30 04:49:50;;;;;;;8.70;2.03;;;;;;;6.30;92.56;102360.81;2065870;28;20034;-66
2021/09/30 04:50:51;;;;;;;5.63;2.40;;;;;;;6.31;93.02;102365.13;2066007;28;20424;-65
2021/09/30 04:51:52;;;;;;;4.20;2.05;;;;;;;6.31;92.59;102362.53;2065936;28;20022;-65
2021/09/30 04:52:57;;;;;;;12.57;2.27;;;;;;;6.32;93.21;102364.25;2066005;28;20018;-65
2021/09/30 04:53:58;;;;;;;7.10;2.08;;;;;;;6.28;93.13;102367.72;2065264;28;20403;-64
2021/09/30 04:54:58;;;;;;;3.60;2.03;;;;;;;6.26;93.35;102369.47;2065444;28;20022;-64
2021/09/30 04:55:58;;;;;;;3.60;1.80;;;;;;;6.24;93.28;102361.69;2065245;28;20125;-64
2021/09/30 04:56:58;;;;;;;10.00;1.77;;;;;;;6.24;93.77;102360.81;2065217;28;20026;-65
2021/09/30 04:57:59;;;;;;;6.00;2.23;;;;;;;6.20;93.24;102353.91;2065847;28;20034;-64
2021/09/30 04:59:01;;;;;;;3.97;1.60;;;;;;;6.18;93.40;102359.97;2065775;28;20467;-66
2021/09/30 05:00:01;;;;;;;4.63;1.50;;;;;;;6.17;93.54;102360.78;2065849;28;20483;-65
2021/09/30 05:01:01;;;;;;;6.63;2.33;;;;;;;6.17;93.69;102360.78;2065592;28;20014;-65
2021/09/30 05:02:01;;;;;;;8.67;3.13;;;;;;;6.17;93.85;102363.38;2065809;28;20019;-65
2021/09/30 05:03:02;;;;;;;2.53;1.40;;;;;;;6.19;93.70;102358.22;2065936;28;20038;-65
2021/09/30 05:04:02;;;;;;;9.20;1.90;;;;;;;6.20;93.97;102364.28;2065895;28;20067;-65
2021/09/30 05:05:03;;;;;;;7.35;2.17;;;;;;;6.18;93.98;102367.72;2065864;28;20077;-66
2021/09/30 05:06:03;;;;;;;6.88;1.67;;;;;;;6.17;93.84;102365.97;2065661;28;20061;-66
2021/09/30 05:07:04;;;;;;;3.10;1.90;;;;;;;6.16;93.59;102361.66;2065885;28;20054;-65
2021/09/30 05:08:04;;;;;;;9.63;2.30;;;;;;;6.17;93.27;102371.16;2065791;28;20471;-65
2021/09/30 05:09:05;;;;;;;6.35;2.58;;;;;;;6.18;93.58;102372.91;2065015;28;20026;-65
2021/09/30 05:10:07;;;;;;;5.03;1.87;;;;;;;6.21;93.75;102377.25;2065140;28;20073;-64
2021/09/30 05:11:07;;;;;;;4.93;2.17;;;;;;;6.22;93.13;102372.94;2057135;28;20070;-64
2021/09/30 05:12:11;;;;;;;5.90;1.87;;;;;;;6.22;93.49;102378.13;2065097;28;20038;-65
2021/09/30 05:13:16;;;;;;;3.85;2.00;;;;;;;6.19;93.88;102376.34;2065218;28;20021;-65
2021/09/30 05:14:17;;;;;;;6.70;1.73;;;;;;;6.15;93.79;102364.25;2065759;28;20522;-66
2021/09/30 05:15:17;;;;;;;8.80;2.10;;;;;;;6.16;93.60;102378.97;2065639;28;20026;-65
2021/09/30 05:16:18;;;;;;;5.73;1.73;;;;;;;6.14;93.23;102375.50;2065895;28;20022;-64
2021/09/30 05:17:18;;;;;;;4.07;1.80;;;;;;;6.15;93.56;102372.91;2065130;28;20092;-65
2021/09/30 05:18:18;;;;;;;6.83;1.93;;;;;;;6.16;93.03;102377.22;2065181;28;20066;-65
2021/09/30 05:19:19;;;;;;;5.90;2.40;;;;;;;6.14;93.20;102380.69;2065241;28;20080;-64
2021/09/30 05:20:19;;;;;;;6.32;2.33;;;;;;;6.13;93.38;102372.03;2065629;28;20026;-65
2021/09/30 05:21:20;;;;;;;9.80;2.10;;;;;;;6.12;93.57;102378.09;2065748;28;20495;-65
2021/09/30 05:22:20;;;;;;;6.45;2.25;;;;;;;6.12;93.47;102372.91;2065887;28;20029;-65
2021/09/30 05:23:22;;;;;;;6.13;2.47;;;;;;;6.10;93.65;102374.66;2065993;28;20026;-65
2021/09/30 05:24:23;;;;;;;14.15;2.03;;;;;;;6.08;93.53;102373.75;2065736;28;20026;-66
2021/09/30 05:25:24;;;;;;;6.03;2.27;;;;;;;6.08;93.89;102371.16;2064998;28;20057;-65
2021/09/30 05:26:27;;;;;;;;;;;;;;;6.06;93.81;102375.50;2065530;28;20030;-65
2021/09/30 05:27:28;;;;;;;2.58;1.45;;;;;;;6.06;93.51;102372.91;2065731;28;19968;-65
2021/09/30 05:28:28;;;;;;;8.87;2.20;;;;;;;6.04;93.76;102378.09;2065725;28;20415;-65
2021/09/30 05:29:28;;;;;;;6.37;2.83;;;;;;;6.04;94.09;102367.72;2065737;28;20471;-65
2021/09/30 05:30:29;;;;;;;7.53;2.07;;;;;;;6.05;93.73;102378.94;2065727;28;20080;-64
2021/09/30 05:31:30;;;;;;;4.43;2.45;;;;;;;6.03;93.98;102371.16;2065631;28;20026;-65
2021/09/30 05:32:30;;;;;;;6.32;2.10;;;;;;;6.04;94.07;102366.84;2065471;28;20034;-64
2021/09/30 05:33:31;;;;;;;5.17;1.70;;;;;;;6.05;93.99;102366.84;2065728;28;20536;-66
2021/09/30 05:34:31;;;;;;;9.93;2.43;;;;;;;6.08;93.84;102371.16;2065580;28;20053;-66
2021/09/30 05:35:32;;;;;;;6.43;2.03;;;;;;;6.08;93.55;102372.88;2064989;28;20357;-65
2021/09/30 05:36:32;;;;;;;6.80;1.77;;;;;;;6.09;93.71;102378.06;2056978;28;20109;-66
2021/09/30 05:37:33;;;;;;;4.27;1.73;;;;;;;6.09;93.79;102366.88;2065073;28;20033;-65
2021/09/30 05:38:34;;;;;;;;;;;;;;;6.10;93.94;102366.88;2066054;28;20034;-66
2021/09/30 05:39:34;;;;;;;3.27;1.50;;;;;;;6.11;93.17;102375.50;2065686;28;19916;-66
2021/09/30 05:40:34;;;;;;;4.27;1.87;;;;;;;6.12;93.06;102372.06;2065021;28;20344;-67
2021/09/30 05:41:35;;;;;;;7.33;1.93;;;;;;;6.10;93.52;102366.88;2065090;28;20105;-64
2021/09/30 05:42:35;;;;;;;4.83;2.33;;;;;;;6.11;93.45;102371.19;2065010;28;20021;-65
2021/09/30 05:43:37;;;;;;;6.53;2.77;;;;;;;6.14;92.97;102367.72;2065014;28;20101;-66
2021/09/30 05:44:38;;;;;;;6.47;2.30;;;;;;;6.14;93.07;102366.00;2065635;28;20053;-66
2021/09/30 05:45:42;;;;;;;7.93;2.10;;;;;;;6.16;93.08;102373.78;2065659;28;20014;-66
2021/09/30 05:46:45;;;;;;;3.42;1.63;;;;;;;6.12;93.08;102365.13;2065029;28;20061;-66
2021/09/30 05:47:47;;;;;;;7.95;2.40;;;;;;;6.11;93.19;102366.00;2065065;28;20511;-67
2021/09/30 05:48:47;;;;;;;4.47;2.85;;;;;;;6.12;93.57;102370.31;2065016;28;20411;-67
2021/09/30 05:49:47;;;;;;;5.70;2.23;;;;;;;6.13;93.07;102369.44;2064953;28;20042;-65
2021/09/30 05:50:48;;;;;;;8.33;2.53;;;;;;;6.17;93.23;102362.53;2065541;28;20528;-65
2021/09/30 05:51:48;;;;;;;11.73;2.40;;;;;;;6.17;92.78;102363.38;2065550;28;20402;-66
2021/09/30 05:52:48;;;;;;;7.00;1.90;;;;;;;6.18;92.69;102365.13;2065577;28;20495;-65
2021/09/30 05:53:49;;;;;;;11.70;3.13;;;;;;;6.17;92.49;102368.56;2065529;28;20049;-65
2021/09/30 05:54:50;;;;;;;6.23;2.40;;;;;;;6.16;93.17;102369.44;2065553;28;20030;-65
2021/09/30 05:55:51;;;;;;;3.88;2.13;;;;;;;6.19;93.29;102360.81;2065475;28;20126;-65
2021/09/30 05:56:51;;;;;;;3.70;2.10;;;;;;;6.20;93.38;102361.69;2065040;28;20030;-65
2021/09/30 05:57:51;;;;;;;7.40;2.27;;;;;;;6.18;92.79;102359.97;2065605;28;20033;-65
2021/09/30 05:58:52;;;;;;;5.80;2.13;;;;;;;6.18;92.81;102367.72;2065404;28;20388;-65
2021/09/30 05:59:52;;;;;;;8.07;2.80;;;;;;;6.19;93.34;102363.41;2065571;28;20046;-65
2021/09/30 06:04:48;;;;;;;3.35;2.08;;;;;;;6.27;93.10;102363.41;2065220;28;20385;-64
2021/09/30 06:09:29;;;;;;;7.18;3.00;;;;;;;6.37;92.39;102362.53;2065002;28;20030;-65
2021/09/30 06:10:42;;;;;;;7.93;2.42;;;;;;;6.39;92.71;102366.00;2065466;28;20022;-65
2021/09/30 06:13:07;;;;;;;6.18;2.92;;;;;;;6.39;92.81;102363.41;2065823;28;20030;-65
2021/09/30 06:14:10;;;;;;;4.70;1.80;;;;;;;6.39;92.36;102366.00;2065573;28;20471;-65
2021/09/30 06:15:16;;;;;;;9.75;2.88;;;;;;;6.42;92.77;102359.94;2065718;28;20454;-65
2021/09/30 06:16:21;;;;;;;5.90;2.42;;;;;;;6.44;92.75;102369.44;2065689;28;20041;-66
2021/09/30 06:17:21;;;;;;;5.50;1.95;;;;;;;6.49;92.51;102365.97;2065716;28;20054;-64
2021/09/30 06:18:21;;;;;;;7.57;2.17;;;;;;;6.51;92.23;102364.25;2065518;28;20035;-65
2021/09/30 06:19:22;;;;;;;5.30;2.80;;;;;;;6.53;91.54;102362.53;2065720;28;20296;-64
2021/09/30 06:20:22;;;;;;;5.60;2.40;;;;;;;6.56;92.12;102363.41;2065443;28;20026;-65
2021/09/30 06:21:22;;;;;;;8.90;2.90;;;;;;;6.57;91.05;102353.91;2065415;28;20077;-65
2021/09/30 06:22:23;;;;;;;5.10;2.63;;;;;;;6.61;91.29;102353.03;2065610;28;20065;-66
2021/09/30 06:23:23;;;;;;;6.17;2.23;;;;;;;6.61;91.35;102360.81;2064989;28;20395;-65
2021/09/30 06:24:24;;;;;;;7.70;3.50;;;;;;;6.65;90.99;102357.34;2064840;28;20077;-66
2021/09/30 06:25:24;;;;;;;12.93;3.15;;;;;;;6.68;91.00;102354.72;2065496;28;20258;-63
2021/09/30 06:26:25;;;;;;;6.57;2.77;;;;;;;6.71;90.81;102364.25;2065708;28;20030;-65
2021/09/30 06:27:26;;;;;;;;;;;;;;;6.76;91.28;102361.63;2066067;28;20052;-65
2021/09/30 06:28:26;;;;;;;6.22;1.75;;;;;;;6.76;90.81;102361.63;2065431;28;20395;-64
2021/09/30 06:29:26;;;;;;;5.37;2.53;;;;;;;6.78;91.06;102367.69;2065247;28;20447;-65
2021/09/30 06:30:29;;;;;;;7.10;3.10;;;;;;;6.80;91.15;102363.34;2065362;28;20022;-65
2021/09/30 06:31:30;;;;;;;4.50;1.90;;;;;;;6.83;90.91;102365.94;2065267;28;20097;-64
2021/09/30 06:32:30;;;;;;;9.60;3.10;;;;;;;6.84;90.65;102370.25;2065460;28;20033;-65
2021/09/30 06:33:31;;;;;;;7.10;2.37;;;;;;;6.86;90.84;102368.53;2065395;28;20360;-65
2021/09/30 06:34:31;;;;;;;11.73;2.42;;;;;;;6.89;90.53;102365.94;2065487;28;20042;-65
2021/09/30 06:35:31;;;;;;;7.07;2.47;;;;;;;6.94;90.30;102366.78;2065499;28;20022;-66
2021/09/30 06:36:32;;;;;;;11.67;2.30;;;;;;;6.98;89.96;102369.38;2064820;28;20065;-65
2021/09/30 06:37:32;;;;;;;9.10;2.60;;;;;;;7.03;90.10;102372.81;2064938;28;20022;-65
2021/09/30 06:38:32;;;;;;;6.57;2.67;;;;;;;7.07;90.11;102364.16;2065254;28;20387;-65
2021/09/30 06:39:33;;;;;;;5.57;2.30;;;;;;;7.12;88.93;102367.59;2065277;28;20034;-65
2021/09/30 06:40:34;;;;;;;5.60;2.30;;;;;;;7.19;89.45;102374.47;2064583;28;20031;-66
2021/09/30 06:41:35;;;;;;;4.57;2.00;;;;;;;7.24;89.78;102373.59;2064707;28;20113;-65
2021/09/30 06:42:36;;;;;;;10.27;2.85;;;;;;;7.29;89.06;102369.28;2065252;28;20372;-65
2021/09/30 06:43:36;;;;;;;9.05;3.00;;;;;;;7.34;89.51;102372.72;2065157;28;20351;-66
2021/09/30 06:44:37;;;;;;;10.83;3.10;;;;;;;7.39;88.68;102370.94;2065271;28;20022;-64
2021/09/30 06:45:37;;;;;;;9.07;2.90;;;;;;;7.43;88.43;102370.06;2064861;28;20026;-65
2021/09/30 06:46:38;;;;;;;7.15;2.85;;;;;;;7.51;88.39;102370.03;2065006;28;20073;-65
2021/09/30 06:47:38;;;;;;;3.63;2.10;;;;;;;7.57;88.14;102374.34;2064991;28;20085;-66
2021/09/30 06:48:38;;;;;;;7.63;3.23;;;;;;;7.60;87.95;102369.97;2064710;28;20076;-65
2021/09/30 06:49:38;;;;;;;7.57;3.43;;;;;;;7.69;87.74;102363.88;2065358;28;20068;-65
2021/09/30 06:50:39;;;;;;;8.93;3.57;;;;;;;7.83;87.02;102362.91;2064167;28;20022;-64
2021/09/30 06:51:39;;;;;;;6.80;3.37;;;;;;;7.96;85.97;102364.56;2064135;28;20031;-65
2021/09/30 06:52:40;;;;;;;4.60;2.93;;;;;;;7.99;85.82;102372.34;2065194;28;20019;-64
2021/09/30 06:53:40;;;;;;;7.00;2.63;;;;;;;8.04;85.58;102374.91;2064645;28;20018;-64
2021/09/30 06:54:40;;;;;;;6.43;2.60;;;;;;;8.12;85.37;102372.28;2064500;28;20018;-65
2021/09/30 06:55:42;;;;;;;9.43;2.63;;;;;;;8.19;85.71;102384.34;2064759;28;20025;-64
2021/09/30 06:56:47;;;;;;;6.38;3.20;;;;;;;8.21;85.69;102393.00;2063729;28;20031;-64
2021/09/30 06:57:49;;;;;;;10.05;3.70;;;;;;;8.22;84.85;102381.72;2063990;28;20070;-66
2021/09/30 06:58:51;;;;;;;4.35;2.67;;;;;;;8.25;84.77;102379.09;2064678;28;20037;-65
2021/09/30 06:59:51;;;;;;;4.53;2.90;;;;;;;8.31;84.78;102378.19;2064507;28;20403;-64
2021/09/30 07:00:56;;;;;;;6.17;4.10;;;;;;;8.39;85.12;102375.53;2063955;28;20038;-65
2021/09/30 07:01:58;;;;;;;6.03;3.15;;;;;;;8.45;84.95;102370.25;2064059;28;20069;-69
2021/09/30 07:02:58;;;;;;;9.07;2.80;;;;;;;8.48;84.53;102382.38;2064502;28;20026;-66
2021/09/30 07:03:59;;;;;;;10.77;2.97;;;;;;;8.55;84.66;102385.84;2064572;28;20054;-66
2021/09/30 07:05:00;;;;;;;3.85;3.10;;;;;;;8.59;84.14;102383.16;2063998;28;20468;-64
2021/09/30 07:06:00;;;;;;;8.40;3.50;;;;;;;8.65;84.51;102382.25;2064779;28;20029;-66
2021/09/30 07:07:02;;;;;;;11.57;3.23;;;;;;;8.68;84.24;102377.00;2063953;28;20064;-65
2021/09/30 07:08:05;;;;;;;7.72;3.38;;;;;;;8.70;84.30;102372.69;2064863;28;20026;-66
2021/09/30 07:09:05;;;;;;;8.57;3.47;;;;;;;8.72;83.59;102373.50;2066501;28;20471;-66
2021/09/30 07:10:09;;;;;;;6.78;2.42;;;;;;;8.72;83.80;102378.72;2066622;28;20108;-63
2021/09/30 07:11:10;;;;;;;6.05;3.10;;;;;;;8.67;83.52;102380.50;2066309;28;20060;-64
2021/09/30 07:12:10;;;;;;;6.80;2.30;;;;;;;8.64;83.80;102388.34;2066360;28;20113;-64
2021/09/30 07:13:10;;;;;;;7.33;2.87;;;;;;;8.65;84.09;102384.84;2066311;28;20026;-66
2021/09/30 07:14:10;;;;;;;4.63;2.00;;;;;;;8.68;84.20;102382.22;2066206;28;20029;-66
2021/09/30 07:15:11;;;;;;;6.90;2.20;;;;;;;8.73;83.61;102390.00;2066532;28;20031;-68
2021/09/30 07:16:11;;;;;;;5.63;2.70;;;;;;;8.78;83.62;102395.13;2066681;28;20372;-65
2021/09/30 07:17:12;;;;;;;4.40;2.30;;;;;;;8.72;83.18;102386.53;2066423;28;20020;-66
2021/09/30 07:18:18;;;;;;;5.25;2.60;;;;;;;8.71;82.95;102382.19;2066177;28;20514;-63
2021/09/30 07:19:19;;;;;;;6.85;2.58;;;;;;;8.73;84.14;102385.63;2066112;28;20033;-64
2021/09/30 07:20:19;;;;;;;8.52;2.78;;;;;;;8.69;83.26;102383.09;2065698;28;20502;-65
2021/09/30 07:21:20;;;;;;;7.80;2.60;;;;;;;8.71;83.46;102373.53;2057577;28;20081;-65
2021/09/30 07:22:20;;;;;;;9.17;3.53;;;;;;;8.79;83.99;102378.66;2065612;28;20431;-66
2021/09/30 07:23:20;;;;;;;13.10;2.60;;;;;;;8.85;82.91;102381.19;2066692;28;20320;-68
2021/09/30 07:24:21;;;;;;;10.40;2.17;;;;;;;8.96;82.35;102387.16;2066357;28;20030;-65
2021/09/30 07:25:24;;;;;;;6.97;2.47;;;;;;;9.15;82.62;102379.13;2066291;28;20125;-64
2021/09/30 07:26:25;;;;;;;10.68;2.95;;;;;;;9.33;81.55;102377.16;2065981;28;20030;-65
2021/09/30 07:27:25;;;;;;;6.77;3.00;;;;;;;9.43;80.98;102381.38;2066147;28;20471;-67
2021/09/30 07:28:27;;;;;;;5.77;2.40;;;;;;;9.55;81.06;102387.31;2066483;28;20089;-65
2021/09/30 07:29:28;;;;;;;9.10;3.78;;;;;;;9.71;80.31;102382.78;2065922;28;20029;-65
2021/09/30 07:30:28;;;;;;;10.73;4.13;;;;;;;9.93;79.33;102383.31;2066033;28;20057;-65
2021/09/30 07:31:28;;;;;;;7.30;2.43;;;;;;;9.97;79.32;102385.00;2066393;28;20277;-65
2021/09/30 07:32:28;;;;;;;12.37;4.00;;;;;;;10.02;78.88;102374.47;2066063;28;20486;-65